sensor_id;sensor_type;location;lat;lon;timestamp;P1;durP1;ratioP1;P2;durP2;ratioP2
73474;SDS011;61711;52.266;10.542;2022-12-07T00:03:44;23.27;;;11.95;;
73474;SDS011;61711;52.266;10.542;2022-12-07T00:06:11;24.98;;;11.85;;
73474;SDS011;61711;52.266;10.542;2022-12-07T00:08:37;26.25;;;12.65;;
73474;SDS011;61711;52.266;10.542;2022-12-07T00:11:04;26.92;;;13.15;;
73474;SDS011;61711;52.266;10.542;2022-12-07T00:13:31;23.23;;;11.52;;
73474;SDS011;61711;52.266;10.542;2022-12-07T00:16:05;24.30;;;11.55;;
73474;SDS011;61711;52.266;10.542;2022-12-07T00:18:32;24.40;;;11.93;;
73474;SDS011;61711;52.266;10.542;2022-12-07T00:20:59;25.88;;;11.90;;
73474;SDS011;61711;52.266;10.542;2022-12-07T00:23:25;23.10;;;11.88;;
73474;SDS011;61711;52.266;10.542;2022-12-07T00:25:51;27.08;;;12.77;;
73474;SDS011;61711;52.266;10.542;2022-12-07T00:28:17;24.77;;;11.93;;
73474;SDS011;61711;52.266;10.542;2022-12-07T00:30:43;25.75;;;12.95;;
73474;SDS011;61711;52.266;10.542;2022-12-07T00:33:09;24.92;;;11.90;;
73474;SDS011;61711;52.266;10.542;2022-12-07T00:35:35;25.27;;;12.25;;
73474;SDS011;61711;52.266;10.542;2022-12-07T00:38:01;27.80;;;13.65;;
73474;SDS011;61711;52.266;10.542;2022-12-07T00:40:27;26.13;;;13.88;;
73474;SDS011;61711;52.266;10.542;2022-12-07T00:42:53;24.60;;;12.52;;
73474;SDS011;61711;52.266;10.542;2022-12-07T00:45:19;25.92;;;12.55;;
73474;SDS011;61711;52.266;10.542;2022-12-07T00:47:45;25.67;;;13.25;;
73474;SDS011;61711;52.266;10.542;2022-12-07T00:50:11;26.48;;;13.20;;
73474;SDS011;61711;52.266;10.542;2022-12-07T00:52:37;29.67;;;13.80;;
73474;SDS011;61711;52.266;10.542;2022-12-07T00:55:03;29.63;;;14.00;;
73474;SDS011;61711;52.266;10.542;2022-12-07T00:57:30;30.92;;;14.00;;
73474;SDS011;61711;52.266;10.542;2022-12-07T00:59:56;31.10;;;13.70;;
73474;SDS011;61711;52.266;10.542;2022-12-07T01:02:22;34.10;;;14.82;;
73474;SDS011;61711;52.266;10.542;2022-12-07T01:04:48;29.63;;;14.73;;
73474;SDS011;61711;52.266;10.542;2022-12-07T01:07:14;32.90;;;14.85;;
73474;SDS011;61711;52.266;10.542;2022-12-07T01:09:40;33.40;;;15.00;;
73474;SDS011;61711;52.266;10.542;2022-12-07T01:12:06;32.60;;;15.43;;
73474;SDS011;61711;52.266;10.542;2022-12-07T01:14:32;32.20;;;14.48;;
73474;SDS011;61711;52.266;10.542;2022-12-07T01:16:58;35.65;;;15.63;;
73474;SDS011;61711;52.266;10.542;2022-12-07T01:19:24;30.75;;;14.60;;
73474;SDS011;61711;52.266;10.542;2022-12-07T01:21:50;32.65;;;14.95;;
73474;SDS011;61711;52.266;10.542;2022-12-07T01:24:16;33.80;;;15.75;;
73474;SDS011;61711;52.266;10.542;2022-12-07T01:26:42;32.33;;;14.18;;
73474;SDS011;61711;52.266;10.542;2022-12-07T01:29:08;34.47;;;14.65;;
73474;SDS011;61711;52.266;10.542;2022-12-07T01:31:34;33.45;;;14.95;;
73474;SDS011;61711;52.266;10.542;2022-12-07T01:34:00;32.80;;;15.10;;
73474;SDS011;61711;52.266;10.542;2022-12-07T01:36:29;34.17;;;15.38;;
73474;SDS011;61711;52.266;10.542;2022-12-07T01:38:56;30.05;;;13.45;;
73474;SDS011;61711;52.266;10.542;2022-12-07T01:41:24;36.63;;;15.30;;
73474;SDS011;61711;52.266;10.542;2022-12-07T01:46:35;44.10;;;20.70;;
73474;SDS011;61711;52.266;10.542;2022-12-07T01:49:02;34.70;;;16.00;;
73474;SDS011;61711;52.266;10.542;2022-12-07T01:51:29;36.85;;;16.20;;
73474;SDS011;61711;52.266;10.542;2022-12-07T01:53:55;34.58;;;15.75;;
73474;SDS011;61711;52.266;10.542;2022-12-07T01:56:23;35.97;;;15.35;;
73474;SDS011;61711;52.266;10.542;2022-12-07T01:58:50;34.72;;;15.57;;
73474;SDS011;61711;52.266;10.542;2022-12-07T02:01:17;40.88;;;16.63;;
73474;SDS011;61711;52.266;10.542;2022-12-07T02:03:43;37.85;;;15.57;;
73474;SDS011;61711;52.266;10.542;2022-12-07T02:06:11;35.67;;;16.45;;
73474;SDS011;61711;52.266;10.542;2022-12-07T02:08:38;38.05;;;16.45;;
73474;SDS011;61711;52.266;10.542;2022-12-07T02:11:04;36.53;;;15.90;;
73474;SDS011;61711;52.266;10.542;2022-12-07T02:13:31;36.08;;;16.27;;
73474;SDS011;61711;52.266;10.542;2022-12-07T02:16:02;34.78;;;15.77;;
73474;SDS011;61711;52.266;10.542;2022-12-07T02:31:20;30.23;;;13.65;;
73474;SDS011;61711;52.266;10.542;2022-12-07T02:33:52;29.58;;;13.45;;
73474;SDS011;61711;52.266;10.542;2022-12-07T02:36:21;30.35;;;14.25;;
73474;SDS011;61711;52.266;10.542;2022-12-07T02:39:33;33.67;;;14.35;;
73474;SDS011;61711;52.266;10.542;2022-12-07T02:41:42;32.88;;;14.68;;
73474;SDS011;61711;52.266;10.542;2022-12-07T02:44:10;30.77;;;14.40;;
73474;SDS011;61711;52.266;10.542;2022-12-07T02:46:40;31.58;;;14.40;;
73474;SDS011;61711;52.266;10.542;2022-12-07T02:49:07;28.50;;;13.60;;
73474;SDS011;61711;52.266;10.542;2022-12-07T02:51:38;31.10;;;12.88;;
73474;SDS011;61711;52.266;10.542;2022-12-07T02:54:07;35.20;;;15.77;;
73474;SDS011;61711;52.266;10.542;2022-12-07T03:04:39;28.90;;;14.30;;
73474;SDS011;61711;52.266;10.542;2022-12-07T03:07:11;34.72;;;14.52;;
73474;SDS011;61711;52.266;10.542;2022-12-07T03:09:47;33.42;;;15.15;;
73474;SDS011;61711;52.266;10.542;2022-12-07T03:12:21;28.85;;;13.65;;
73474;SDS011;61711;52.266;10.542;2022-12-07T03:14:52;33.33;;;14.25;;
73474;SDS011;61711;52.266;10.542;2022-12-07T03:17:24;30.73;;;14.50;;
73474;SDS011;61711;52.266;10.542;2022-12-07T03:19:51;28.70;;;13.80;;
73474;SDS011;61711;52.266;10.542;2022-12-07T03:22:18;28.65;;;13.70;;
73474;SDS011;61711;52.266;10.542;2022-12-07T03:24:46;28.42;;;14.25;;
73474;SDS011;61711;52.266;10.542;2022-12-07T03:27:18;29.60;;;13.93;;
73474;SDS011;61711;52.266;10.542;2022-12-07T03:29:49;29.77;;;14.30;;
73474;SDS011;61711;52.266;10.542;2022-12-07T03:32:19;30.65;;;14.90;;
73474;SDS011;61711;52.266;10.542;2022-12-07T03:35:06;31.67;;;14.75;;
73474;SDS011;61711;52.266;10.542;2022-12-07T03:37:38;29.73;;;14.88;;
73474;SDS011;61711;52.266;10.542;2022-12-07T03:40:19;27.10;;;13.25;;
73474;SDS011;61711;52.266;10.542;2022-12-07T03:42:48;28.38;;;14.05;;
73474;SDS011;61711;52.266;10.542;2022-12-07T03:45:14;27.73;;;14.63;;
73474;SDS011;61711;52.266;10.542;2022-12-07T03:47:48;26.08;;;13.43;;
73474;SDS011;61711;52.266;10.542;2022-12-07T03:50:31;30.02;;;15.00;;
73474;SDS011;61711;52.266;10.542;2022-12-07T03:53:33;27.88;;;14.05;;
73474;SDS011;61711;52.266;10.542;2022-12-07T03:55:49;28.35;;;13.70;;
73474;SDS011;61711;52.266;10.542;2022-12-07T03:58:20;28.40;;;14.13;;
73474;SDS011;61711;52.266;10.542;2022-12-07T04:00:48;28.30;;;13.52;;
73474;SDS011;61711;52.266;10.542;2022-12-07T04:03:14;29.10;;;13.75;;
73474;SDS011;61711;52.266;10.542;2022-12-07T04:05:40;27.58;;;13.85;;
73474;SDS011;61711;52.266;10.542;2022-12-07T04:08:07;28.90;;;14.32;;
73474;SDS011;61711;52.266;10.542;2022-12-07T04:10:33;26.30;;;13.00;;
73474;SDS011;61711;52.266;10.542;2022-12-07T04:12:59;29.70;;;13.07;;
73474;SDS011;61711;52.266;10.542;2022-12-07T04:15:25;27.65;;;13.40;;
73474;SDS011;61711;52.266;10.542;2022-12-07T04:17:51;28.75;;;13.40;;
73474;SDS011;61711;52.266;10.542;2022-12-07T04:20:17;25.52;;;13.32;;
73474;SDS011;61711;52.266;10.542;2022-12-07T04:22:43;24.58;;;12.43;;
73474;SDS011;61711;52.266;10.542;2022-12-07T04:25:09;27.05;;;12.82;;
73474;SDS011;61711;52.266;10.542;2022-12-07T04:27:35;24.45;;;12.35;;
73474;SDS011;61711;52.266;10.542;2022-12-07T04:30:01;28.00;;;12.20;;
73474;SDS011;61711;52.266;10.542;2022-12-07T04:32:27;25.80;;;11.90;;
73474;SDS011;61711;52.266;10.542;2022-12-07T04:34:52;24.23;;;11.77;;
73474;SDS011;61711;52.266;10.542;2022-12-07T04:37:18;26.20;;;11.85;;
73474;SDS011;61711;52.266;10.542;2022-12-07T04:39:44;26.02;;;11.75;;
73474;SDS011;61711;52.266;10.542;2022-12-07T04:42:13;22.60;;;11.40;;
73474;SDS011;61711;52.266;10.542;2022-12-07T04:44:39;22.50;;;11.13;;
73474;SDS011;61711;52.266;10.542;2022-12-07T04:47:05;23.55;;;11.20;;
73474;SDS011;61711;52.266;10.542;2022-12-07T04:49:34;24.33;;;11.43;;
73474;SDS011;61711;52.266;10.542;2022-12-07T04:52:03;22.15;;;11.05;;
73474;SDS011;61711;52.266;10.542;2022-12-07T04:54:29;22.33;;;10.73;;
73474;SDS011;61711;52.266;10.542;2022-12-07T04:56:55;23.15;;;10.50;;
73474;SDS011;61711;52.266;10.542;2022-12-07T04:59:21;22.73;;;10.98;;
73474;SDS011;61711;52.266;10.542;2022-12-07T05:01:47;20.55;;;10.25;;
73474;SDS011;61711;52.266;10.542;2022-12-07T05:04:13;18.88;;;10.40;;
73474;SDS011;61711;52.266;10.542;2022-12-07T05:06:41;21.42;;;10.70;;
73474;SDS011;61711;52.266;10.542;2022-12-07T05:09:07;21.27;;;9.75;;
73474;SDS011;61711;52.266;10.542;2022-12-07T05:11:33;21.65;;;10.23;;
73474;SDS011;61711;52.266;10.542;2022-12-07T05:14:20;19.92;;;10.90;;
73474;SDS011;61711;52.266;10.542;2022-12-07T05:16:47;24.17;;;11.75;;
73474;SDS011;61711;52.266;10.542;2022-12-07T05:19:13;21.50;;;9.65;;
73474;SDS011;61711;52.266;10.542;2022-12-07T05:21:40;23.02;;;11.60;;
73474;SDS011;61711;52.266;10.542;2022-12-07T05:24:06;22.70;;;10.35;;
73474;SDS011;61711;52.266;10.542;2022-12-07T05:26:32;20.30;;;9.90;;
73474;SDS011;61711;52.266;10.542;2022-12-07T05:28:59;20.35;;;9.65;;
73474;SDS011;61711;52.266;10.542;2022-12-07T05:31:25;19.92;;;9.68;;
73474;SDS011;61711;52.266;10.542;2022-12-07T05:33:51;24.30;;;9.93;;
73474;SDS011;61711;52.266;10.542;2022-12-07T05:36:17;20.85;;;9.75;;
73474;SDS011;61711;52.266;10.542;2022-12-07T05:38:44;17.65;;;9.30;;
73474;SDS011;61711;52.266;10.542;2022-12-07T05:41:11;19.40;;;9.45;;
73474;SDS011;61711;52.266;10.542;2022-12-07T05:43:58;19.42;;;9.50;;
73474;SDS011;61711;52.266;10.542;2022-12-07T05:46:24;20.10;;;9.13;;
73474;SDS011;61711;52.266;10.542;2022-12-07T05:48:50;18.30;;;9.00;;
73474;SDS011;61711;52.266;10.542;2022-12-07T05:51:16;20.80;;;10.13;;
73474;SDS011;61711;52.266;10.542;2022-12-07T05:53:42;20.48;;;9.25;;
73474;SDS011;61711;52.266;10.542;2022-12-07T05:56:08;21.83;;;9.50;;
73474;SDS011;61711;52.266;10.542;2022-12-07T05:58:34;25.38;;;10.93;;
73474;SDS011;61711;52.266;10.542;2022-12-07T06:01:18;20.50;;;9.05;;
73474;SDS011;61711;52.266;10.542;2022-12-07T06:03:46;16.88;;;8.20;;
73474;SDS011;61711;52.266;10.542;2022-12-07T06:06:12;19.60;;;9.13;;
73474;SDS011;61711;52.266;10.542;2022-12-07T06:08:38;21.15;;;9.13;;
73474;SDS011;61711;52.266;10.542;2022-12-07T06:11:04;18.67;;;8.85;;
73474;SDS011;61711;52.266;10.542;2022-12-07T06:13:49;18.88;;;8.93;;
73474;SDS011;61711;52.266;10.542;2022-12-07T06:16:15;16.33;;;8.18;;
73474;SDS011;61711;52.266;10.542;2022-12-07T06:18:41;13.20;;;6.35;;
73474;SDS011;61711;52.266;10.542;2022-12-07T06:21:07;14.38;;;6.65;;
73474;SDS011;61711;52.266;10.542;2022-12-07T06:23:33;12.77;;;5.70;;
73474;SDS011;61711;52.266;10.542;2022-12-07T06:26:00;13.38;;;5.88;;
73474;SDS011;61711;52.266;10.542;2022-12-07T06:28:29;12.23;;;5.35;;
73474;SDS011;61711;52.266;10.542;2022-12-07T06:30:58;11.70;;;4.90;;
73474;SDS011;61711;52.266;10.542;2022-12-07T06:33:24;9.48;;;4.07;;
73474;SDS011;61711;52.266;10.542;2022-12-07T06:35:50;7.50;;;3.67;;
73474;SDS011;61711;52.266;10.542;2022-12-07T06:38:16;8.93;;;3.70;;
73474;SDS011;61711;52.266;10.542;2022-12-07T06:40:42;9.73;;;4.35;;
73474;SDS011;61711;52.266;10.542;2022-12-07T06:43:08;7.68;;;4.50;;
73474;SDS011;61711;52.266;10.542;2022-12-07T06:45:34;9.52;;;5.30;;
73474;SDS011;61711;52.266;10.542;2022-12-07T06:48:00;11.93;;;5.55;;
73474;SDS011;61711;52.266;10.542;2022-12-07T06:50:26;11.80;;;5.38;;
73474;SDS011;61711;52.266;10.542;2022-12-07T06:52:52;13.75;;;5.63;;
73474;SDS011;61711;52.266;10.542;2022-12-07T06:55:18;15.30;;;6.97;;
73474;SDS011;61711;52.266;10.542;2022-12-07T06:57:44;13.93;;;6.80;;
73474;SDS011;61711;52.266;10.542;2022-12-07T07:00:10;18.52;;;6.95;;
73474;SDS011;61711;52.266;10.542;2022-12-07T07:02:36;14.35;;;6.47;;
73474;SDS011;61711;52.266;10.542;2022-12-07T07:05:02;14.60;;;6.97;;
73474;SDS011;61711;52.266;10.542;2022-12-07T07:07:28;17.88;;;7.28;;
73474;SDS011;61711;52.266;10.542;2022-12-07T07:09:54;20.10;;;7.05;;
73474;SDS011;61711;52.266;10.542;2022-12-07T07:12:21;16.90;;;7.65;;
73474;SDS011;61711;52.266;10.542;2022-12-07T07:14:47;18.17;;;8.15;;
73474;SDS011;61711;52.266;10.542;2022-12-07T07:17:12;22.85;;;8.73;;
73474;SDS011;61711;52.266;10.542;2022-12-07T07:19:39;22.10;;;9.80;;
73474;SDS011;61711;52.266;10.542;2022-12-07T07:22:04;25.75;;;10.40;;
73474;SDS011;61711;52.266;10.542;2022-12-07T07:24:33;21.80;;;9.98;;
73474;SDS011;61711;52.266;10.542;2022-12-07T07:26:59;24.70;;;10.82;;
73474;SDS011;61711;52.266;10.542;2022-12-07T07:29:26;27.40;;;11.10;;
73474;SDS011;61711;52.266;10.542;2022-12-07T07:31:52;28.40;;;10.98;;
73474;SDS011;61711;52.266;10.542;2022-12-07T07:34:18;23.13;;;9.93;;
73474;SDS011;61711;52.266;10.542;2022-12-07T07:36:44;22.58;;;10.43;;
73474;SDS011;61711;52.266;10.542;2022-12-07T07:39:10;23.88;;;10.68;;
73474;SDS011;61711;52.266;10.542;2022-12-07T07:41:37;26.48;;;10.68;;
73474;SDS011;61711;52.266;10.542;2022-12-07T07:44:03;24.88;;;10.93;;
73474;SDS011;61711;52.266;10.542;2022-12-07T07:46:33;24.13;;;10.13;;
73474;SDS011;61711;52.266;10.542;2022-12-07T07:48:59;24.70;;;10.57;;
73474;SDS011;61711;52.266;10.542;2022-12-07T07:51:25;28.30;;;10.13;;
73474;SDS011;61711;52.266;10.542;2022-12-07T07:53:51;25.67;;;10.88;;
73474;SDS011;61711;52.266;10.542;2022-12-07T07:56:17;23.40;;;9.85;;
73474;SDS011;61711;52.266;10.542;2022-12-07T07:58:43;24.27;;;9.82;;
73474;SDS011;61711;52.266;10.542;2022-12-07T08:01:09;24.33;;;9.80;;
73474;SDS011;61711;52.266;10.542;2022-12-07T08:03:35;23.05;;;10.43;;
73474;SDS011;61711;52.266;10.542;2022-12-07T08:06:04;24.67;;;10.65;;
73474;SDS011;61711;52.266;10.542;2022-12-07T08:08:36;24.50;;;9.85;;
73474;SDS011;61711;52.266;10.542;2022-12-07T08:11:05;22.30;;;10.38;;
73474;SDS011;61711;52.266;10.542;2022-12-07T08:13:31;22.05;;;10.15;;
73474;SDS011;61711;52.266;10.542;2022-12-07T08:15:58;24.85;;;9.75;;
73474;SDS011;61711;52.266;10.542;2022-12-07T08:18:24;20.23;;;9.20;;
73474;SDS011;61711;52.266;10.542;2022-12-07T08:20:50;19.25;;;9.50;;
73474;SDS011;61711;52.266;10.542;2022-12-07T08:23:16;24.55;;;10.05;;
73474;SDS011;61711;52.266;10.542;2022-12-07T08:25:42;24.45;;;8.55;;
73474;SDS011;61711;52.266;10.542;2022-12-07T08:28:08;21.10;;;9.25;;
73474;SDS011;61711;52.266;10.542;2022-12-07T08:30:34;21.73;;;9.00;;
73474;SDS011;61711;52.266;10.542;2022-12-07T08:33:00;22.83;;;8.75;;
73474;SDS011;61711;52.266;10.542;2022-12-07T08:35:26;23.25;;;9.90;;
73474;SDS011;61711;52.266;10.542;2022-12-07T08:37:52;23.35;;;9.43;;
73474;SDS011;61711;52.266;10.542;2022-12-07T08:40:18;19.85;;;8.55;;
73474;SDS011;61711;52.266;10.542;2022-12-07T08:42:49;17.30;;;9.38;;
73474;SDS011;61711;52.266;10.542;2022-12-07T08:45:16;18.48;;;8.68;;
73474;SDS011;61711;52.266;10.542;2022-12-07T08:50:32;19.55;;;8.57;;
73474;SDS011;61711;52.266;10.542;2022-12-07T08:52:58;18.88;;;8.00;;
73474;SDS011;61711;52.266;10.542;2022-12-07T08:55:24;19.30;;;7.63;;
73474;SDS011;61711;52.266;10.542;2022-12-07T08:57:50;15.85;;;7.40;;
73474;SDS011;61711;52.266;10.542;2022-12-07T09:00:17;16.27;;;7.55;;
73474;SDS011;61711;52.266;10.542;2022-12-07T09:02:43;17.85;;;8.43;;
73474;SDS011;61711;52.266;10.542;2022-12-07T09:05:10;16.63;;;8.75;;
73474;SDS011;61711;52.266;10.542;2022-12-07T09:07:36;14.43;;;7.93;;
73474;SDS011;61711;52.266;10.542;2022-12-07T09:10:03;17.90;;;8.40;;
73474;SDS011;61711;52.266;10.542;2022-12-07T09:12:29;20.27;;;8.05;;
73474;SDS011;61711;52.266;10.542;2022-12-07T09:14:55;19.80;;;7.47;;
73474;SDS011;61711;52.266;10.542;2022-12-07T09:17:22;16.20;;;8.10;;
73474;SDS011;61711;52.266;10.542;2022-12-07T09:19:48;17.00;;;8.20;;
73474;SDS011;61711;52.266;10.542;2022-12-07T09:22:14;19.00;;;8.32;;
73474;SDS011;61711;52.266;10.542;2022-12-07T09:24:40;16.70;;;7.47;;
73474;SDS011;61711;52.266;10.542;2022-12-07T09:27:06;16.45;;;7.47;;
73474;SDS011;61711;52.266;10.542;2022-12-07T09:29:35;18.30;;;8.05;;
73474;SDS011;61711;52.266;10.542;2022-12-07T09:32:04;18.23;;;7.90;;
73474;SDS011;61711;52.266;10.542;2022-12-07T09:34:30;18.13;;;8.45;;
73474;SDS011;61711;52.266;10.542;2022-12-07T09:36:57;17.00;;;8.40;;
73474;SDS011;61711;52.266;10.542;2022-12-07T09:39:23;19.13;;;9.55;;
73474;SDS011;61711;52.266;10.542;2022-12-07T09:41:49;19.15;;;8.60;;
73474;SDS011;61711;52.266;10.542;2022-12-07T09:44:20;17.90;;;9.00;;
73474;SDS011;61711;52.266;10.542;2022-12-07T09:46:47;19.20;;;9.45;;
73474;SDS011;61711;52.266;10.542;2022-12-07T09:49:19;19.48;;;9.20;;
73474;SDS011;61711;52.266;10.542;2022-12-07T09:51:46;18.13;;;8.57;;
73474;SDS011;61711;52.266;10.542;2022-12-07T09:54:13;16.10;;;8.20;;
73474;SDS011;61711;52.266;10.542;2022-12-07T09:56:40;17.33;;;8.07;;
73474;SDS011;61711;52.266;10.542;2022-12-07T09:59:09;15.23;;;8.10;;
73474;SDS011;61711;52.266;10.542;2022-12-07T10:01:37;17.23;;;7.00;;
73474;SDS011;61711;52.266;10.542;2022-12-07T10:04:15;15.02;;;7.00;;
73474;SDS011;61711;52.266;10.542;2022-12-07T10:06:42;16.23;;;7.35;;
73474;SDS011;61711;52.266;10.542;2022-12-07T10:09:12;15.48;;;7.63;;
73474;SDS011;61711;52.266;10.542;2022-12-07T10:11:58;14.52;;;7.30;;
73474;SDS011;61711;52.266;10.542;2022-12-07T10:14:24;15.48;;;6.93;;
73474;SDS011;61711;52.266;10.542;2022-12-07T10:16:51;12.82;;;6.60;;
73474;SDS011;61711;52.266;10.542;2022-12-07T10:19:19;13.70;;;7.35;;
73474;SDS011;61711;52.266;10.542;2022-12-07T10:24:30;17.08;;;6.50;;
73474;SDS011;61711;52.266;10.542;2022-12-07T10:26:56;15.52;;;6.45;;
73474;SDS011;61711;52.266;10.542;2022-12-07T10:34:44;16.58;;;5.63;;
73474;SDS011;61711;52.266;10.542;2022-12-07T10:39:43;14.38;;;4.70;;
73474;SDS011;61711;52.266;10.542;2022-12-07T10:42:28;11.75;;;4.72;;
73474;SDS011;61711;52.266;10.542;2022-12-07T10:45:08;9.98;;;4.70;;
73474;SDS011;61711;52.266;10.542;2022-12-07T11:00:22;12.50;;;5.53;;
73474;SDS011;61711;52.266;10.542;2022-12-07T11:05:43;11.32;;;5.35;;
73474;SDS011;61711;52.266;10.542;2022-12-07T11:08:22;10.85;;;5.30;;
73474;SDS011;61711;52.266;10.542;2022-12-07T11:24:13;8.73;;;3.55;;
73474;SDS011;61711;52.266;10.542;2022-12-07T11:26:55;9.77;;;4.20;;
73474;SDS011;61711;52.266;10.542;2022-12-07T11:29:44;8.93;;;3.90;;
73474;SDS011;61711;52.266;10.542;2022-12-07T11:32:21;10.82;;;4.00;;
73474;SDS011;61711;52.266;10.542;2022-12-07T11:34:59;6.65;;;3.13;;
73474;SDS011;61711;52.266;10.542;2022-12-07T11:37:30;9.15;;;4.15;;
73474;SDS011;61711;52.266;10.542;2022-12-07T11:40:01;9.25;;;3.70;;
73474;SDS011;61711;52.266;10.542;2022-12-07T11:42:29;7.40;;;3.10;;
73474;SDS011;61711;52.266;10.542;2022-12-07T11:44:59;5.75;;;2.75;;
73474;SDS011;61711;52.266;10.542;2022-12-07T11:55:03;7.80;;;2.47;;
73474;SDS011;61711;52.266;10.542;2022-12-07T11:57:36;4.20;;;2.10;;
73474;SDS011;61711;52.266;10.542;2022-12-07T12:00:06;4.55;;;1.98;;
73474;SDS011;61711;52.266;10.542;2022-12-07T12:02:43;5.18;;;2.17;;
73474;SDS011;61711;52.266;10.542;2022-12-07T12:05:15;6.45;;;2.70;;
73474;SDS011;61711;52.266;10.542;2022-12-07T12:07:42;7.22;;;2.45;;
73474;SDS011;61711;52.266;10.542;2022-12-07T12:10:32;6.85;;;2.85;;
73474;SDS011;61711;52.266;10.542;2022-12-07T12:15:37;6.20;;;2.58;;
73474;SDS011;61711;52.266;10.542;2022-12-07T12:18:24;5.95;;;3.60;;
73474;SDS011;61711;52.266;10.542;2022-12-07T12:23:25;8.95;;;3.13;;
73474;SDS011;61711;52.266;10.542;2022-12-07T12:25:57;8.30;;;3.35;;
73474;SDS011;61711;52.266;10.542;2022-12-07T12:28:49;6.47;;;3.47;;
73474;SDS011;61711;52.266;10.542;2022-12-07T12:31:28;8.45;;;3.35;;
73474;SDS011;61711;52.266;10.542;2022-12-07T12:33:55;4.57;;;2.90;;
73474;SDS011;61711;52.266;10.542;2022-12-07T12:43:58;8.50;;;3.35;;
73474;SDS011;61711;52.266;10.542;2022-12-07T12:49:15;8.95;;;3.55;;
73474;SDS011;61711;52.266;10.542;2022-12-07T12:51:57;7.05;;;3.13;;
73474;SDS011;61711;52.266;10.542;2022-12-07T12:54:30;5.53;;;2.75;;
73474;SDS011;61711;52.266;10.542;2022-12-07T13:04:48;7.18;;;2.25;;
73474;SDS011;61711;52.266;10.542;2022-12-07T13:07:47;3.70;;;1.98;;
73474;SDS011;61711;52.266;10.542;2022-12-07T13:10:01;4.78;;;2.00;;
73474;SDS011;61711;52.266;10.542;2022-12-07T13:12:28;4.53;;;2.13;;
73474;SDS011;61711;52.266;10.542;2022-12-07T13:14:55;5.88;;;2.40;;
73474;SDS011;61711;52.266;10.542;2022-12-07T13:20:00;7.65;;;2.30;;
73474;SDS011;61711;52.266;10.542;2022-12-07T13:25:18;5.25;;;2.35;;
73474;SDS011;61711;52.266;10.542;2022-12-07T13:27:42;4.28;;;2.55;;
73474;SDS011;61711;52.266;10.542;2022-12-07T13:30:14;4.70;;;2.83;;
73474;SDS011;61711;52.266;10.542;2022-12-07T13:32:40;5.50;;;2.85;;
73474;SDS011;61711;52.266;10.542;2022-12-07T13:37:51;5.60;;;2.72;;
73474;SDS011;61711;52.266;10.542;2022-12-07T13:40:18;6.93;;;3.13;;
73474;SDS011;61711;52.266;10.542;2022-12-07T13:42:45;6.38;;;3.10;;
73474;SDS011;61711;52.266;10.542;2022-12-07T13:45:21;5.47;;;2.75;;
73474;SDS011;61711;52.266;10.542;2022-12-07T13:48:08;7.57;;;3.03;;
73474;SDS011;61711;52.266;10.542;2022-12-07T13:50:38;4.82;;;2.70;;
73474;SDS011;61711;52.266;10.542;2022-12-07T13:53:07;7.50;;;3.63;;
73474;SDS011;61711;52.266;10.542;2022-12-07T13:55:36;7.57;;;3.00;;
73474;SDS011;61711;52.266;10.542;2022-12-07T13:58:09;5.15;;;2.72;;
73474;SDS011;61711;52.266;10.542;2022-12-07T14:00:35;6.55;;;2.80;;
73474;SDS011;61711;52.266;10.542;2022-12-07T14:03:03;5.78;;;2.72;;
73474;SDS011;61711;52.266;10.542;2022-12-07T14:05:29;8.52;;;2.97;;
73474;SDS011;61711;52.266;10.542;2022-12-07T14:12:51;9.57;;;3.05;;
73474;SDS011;61711;52.266;10.542;2022-12-07T14:15:21;7.18;;;2.95;;
73474;SDS011;61711;52.266;10.542;2022-12-07T14:17:51;9.43;;;2.97;;
73474;SDS011;61711;52.266;10.542;2022-12-07T14:22:56;11.40;;;3.17;;
73474;SDS011;61711;52.266;10.542;2022-12-07T14:25:25;5.97;;;3.17;;
73474;SDS011;61711;52.266;10.542;2022-12-07T14:27:53;8.18;;;3.63;;
73474;SDS011;61711;52.266;10.542;2022-12-07T14:30:21;6.43;;;2.92;;
73474;SDS011;61711;52.266;10.542;2022-12-07T14:32:48;6.75;;;3.15;;
73474;SDS011;61711;52.266;10.542;2022-12-07T14:35:17;6.18;;;3.20;;
73474;SDS011;61711;52.266;10.542;2022-12-07T14:37:44;9.27;;;3.30;;
73474;SDS011;61711;52.266;10.542;2022-12-07T14:40:15;6.57;;;3.78;;
73474;SDS011;61711;52.266;10.542;2022-12-07T14:42:41;6.82;;;3.42;;
73474;SDS011;61711;52.266;10.542;2022-12-07T14:45:19;10.43;;;3.40;;
73474;SDS011;61711;52.266;10.542;2022-12-07T14:47:45;11.82;;;4.18;;
73474;SDS011;61711;52.266;10.542;2022-12-07T14:50:12;7.63;;;3.33;;
73474;SDS011;61711;52.266;10.542;2022-12-07T14:52:38;8.55;;;3.45;;
73474;SDS011;61711;52.266;10.542;2022-12-07T14:55:07;4.85;;;3.40;;
73474;SDS011;61711;52.266;10.542;2022-12-07T14:57:37;8.68;;;3.33;;
73474;SDS011;61711;52.266;10.542;2022-12-07T15:00:04;8.50;;;3.00;;
73474;SDS011;61711;52.266;10.542;2022-12-07T15:02:30;6.75;;;3.10;;
73474;SDS011;61711;52.266;10.542;2022-12-07T15:04:56;8.85;;;3.58;;
73474;SDS011;61711;52.266;10.542;2022-12-07T15:07:22;10.20;;;3.40;;
73474;SDS011;61711;52.266;10.542;2022-12-07T15:09:48;8.25;;;3.47;;
73474;SDS011;61711;52.266;10.542;2022-12-07T15:12:15;9.60;;;3.58;;
73474;SDS011;61711;52.266;10.542;2022-12-07T15:14:41;10.82;;;3.55;;
73474;SDS011;61711;52.266;10.542;2022-12-07T15:17:09;8.25;;;3.40;;
73474;SDS011;61711;52.266;10.542;2022-12-07T15:19:36;7.78;;;3.03;;
73474;SDS011;61711;52.266;10.542;2022-12-07T15:22:02;9.07;;;3.47;;
73474;SDS011;61711;52.266;10.542;2022-12-07T15:24:29;7.55;;;3.10;;
73474;SDS011;61711;52.266;10.542;2022-12-07T15:26:55;11.18;;;3.45;;
73474;SDS011;61711;52.266;10.542;2022-12-07T15:29:21;9.35;;;2.95;;
73474;SDS011;61711;52.266;10.542;2022-12-07T15:31:48;7.95;;;3.72;;
73474;SDS011;61711;52.266;10.542;2022-12-07T15:34:14;18.00;;;7.47;;
73474;SDS011;61711;52.266;10.542;2022-12-07T15:36:40;6.35;;;2.75;;
73474;SDS011;61711;52.266;10.542;2022-12-07T15:39:07;6.88;;;3.22;;
73474;SDS011;61711;52.266;10.542;2022-12-07T15:41:34;5.63;;;2.70;;
73474;SDS011;61711;52.266;10.542;2022-12-07T15:44:03;9.07;;;3.10;;
73474;SDS011;61711;52.266;10.542;2022-12-07T15:46:48;6.32;;;2.97;;
73474;SDS011;61711;52.266;10.542;2022-12-07T15:49:15;9.00;;;2.80;;
73474;SDS011;61711;52.266;10.542;2022-12-07T15:51:42;7.93;;;2.67;;
73474;SDS011;61711;52.266;10.542;2022-12-07T15:54:19;7.22;;;2.78;;
73474;SDS011;61711;52.266;10.542;2022-12-07T15:56:45;7.72;;;2.90;;
73474;SDS011;61711;52.266;10.542;2022-12-07T15:59:11;6.20;;;2.97;;
73474;SDS011;61711;52.266;10.542;2022-12-07T16:01:37;11.02;;;2.83;;
73474;SDS011;61711;52.266;10.542;2022-12-07T16:04:04;4.72;;;2.55;;
73474;SDS011;61711;52.266;10.542;2022-12-07T16:06:30;8.55;;;3.05;;
73474;SDS011;61711;52.266;10.542;2022-12-07T16:08:56;4.00;;;2.10;;
73474;SDS011;61711;52.266;10.542;2022-12-07T16:11:22;4.53;;;2.00;;
73474;SDS011;61711;52.266;10.542;2022-12-07T16:13:48;4.75;;;2.20;;
73474;SDS011;61711;52.266;10.542;2022-12-07T16:16:14;4.03;;;1.58;;
73474;SDS011;61711;52.266;10.542;2022-12-07T16:18:41;3.72;;;1.48;;
73474;SDS011;61711;52.266;10.542;2022-12-07T16:21:08;3.88;;;1.40;;
73474;SDS011;61711;52.266;10.542;2022-12-07T16:23:34;4.25;;;1.30;;